Canby, MN

11:16 AM CDT on May 22, 2018 (GMT -0500)
Canby

Weather History for KCNB - February, 2014

Change the Weather History Date:

Monday, February 17, 2014

  Actual Average (KMML) Record (KMML)
Temperature  
Mean Temperature 32 °F -  
Max Temperature 39 °F 29 °F 65 °F (1981)
Min Temperature 24 °F 10 °F -25 °F (1979)
Degree Days  
Heating Degree Days 34    
Moisture  
Dew Point 26 °F    
Average Humidity 77    
Maximum Humidity 99    
Minimum Humidity 61    
Precipitation  
Precipitation 0.05 in - - ()
Sea Level Pressure  
Sea Level Pressure 29.70 in    
Wind  
Wind Speed 14 mph (WSW)    
Max Wind Speed 24 mph    
Max Gust Speed 33 mph    
Visibility 9 miles    
Events Snow    
Averages and records for this station are not official NWS values.
T = Trace of Precipitation, MM = Missing Value Source: NWS Daily Summary

Daily Weather History Graph

Daily Weather History Graph

Search for Another Location

Airport or City:

Astronomy

Feb. 17, 2014 Rise Set
Actual Time 7:22 AM CST 5:56 PM CST
Civil Twilight 6:52 AM CST 6:26 PM CST
Nautical Twilight 6:18 AM CST 7:00 PM CST
Astronomical Twilight 5:44 AM CST 7:34 PM CST
Moon 9:01 PM CST (2/17) 8:15 AM CST (2/17)
Length of Visible Light 11h 33m
Length of Day
10h 34m
Waning Gibbous, 93% of the Moon is Illuminated
Feb 17
Waning Gibbous
Feb 22
Last Quarter
Mar 1
New
Mar 8
First Quarter
Mar 16
Full

Hourly Weather History & Observations

Time (CST) Temp. Windchill Dew Point Humidity Pressure Visibility Wind Dir Wind Speed Gust Speed Precip Events Conditions
12:14 AM 24.8 °F 13.4 °F 20.1 °F 82% 29.72 in 10.0 mi SSE 12.7 mph 19.6 mph N/A   Overcast
12:34 AM 25.2 °F 13.9 °F 20.3 °F 82% 29.71 in 10.0 mi SSE 12.7 mph 17.3 mph N/A   Mostly Cloudy
12:54 AM 25.9 °F 14.3 °F 21.0 °F 82% 29.71 in 10.0 mi SSE 13.8 mph 20.7 mph N/A   Mostly Cloudy
1:14 AM 26.6 °F 15.7 °F 21.6 °F 81% 29.70 in 10.0 mi SSE 12.7 mph 19.6 mph N/A   Overcast
1:34 AM 26.6 °F 14.7 °F 21.9 °F 82% 29.70 in 10.0 mi SSE 15.0 mph 20.7 mph N/A   Overcast
1:55 AM 27.0 °F 15.2 °F 22.1 °F 82% 29.69 in 10.0 mi SSE 15.0 mph - N/A   Overcast
2:14 AM 26.8 °F 17.1 °F 22.6 °F 84% 29.68 in 7.0 mi SSE 10.4 mph - N/A Snow Light Snow
2:34 AM 27.0 °F 17.3 °F 23.4 °F 86% 29.66 in 5.0 mi SSE 10.4 mph - N/A Snow Light Snow
2:55 AM 26.6 °F 16.2 °F 24.6 °F 92% 29.65 in 1.2 mi SE 11.5 mph - N/A Snow Snow
3:14 AM 26.6 °F 16.8 °F 25.7 °F 96% 29.64 in 0.8 mi SE 10.4 mph - 0.01 in Snow Snow
3:34 AM 27.1 °F 16.9 °F 26.4 °F 97% 29.63 in 1.2 mi SE 11.5 mph - 0.03 in Snow Light Snow
3:55 AM 28.2 °F 19.5 °F 27.7 °F 98% 29.62 in 1.5 mi SE 9.2 mph - 0.03 in Snow Light Snow
4:14 AM 28.4 °F 23.3 °F 28.0 °F 99% 29.61 in 1.5 mi ESE 4.6 mph - 0.01 in Snow Light Snow
4:34 AM 28.6 °F 24.8 °F 28.2 °F 99% 29.61 in 1.5 mi ESE 3.5 mph - 0.01 in Snow Light Snow
4:55 AM 28.0 °F - 27.5 °F 98% 29.62 in 1.8 mi Calm Calm - 0.02 in Snow Light Snow
5:14 AM 28.4 °F 21.2 °F 28.2 °F 99% 29.63 in 2.0 mi NW 6.9 mph - N/A Snow Light Snow
5:34 AM 28.2 °F 19.5 °F 27.5 °F 97% 29.66 in 5.0 mi WNW 9.2 mph - N/A Snow Light Snow
5:55 AM 28.0 °F 16.1 °F 27.3 °F 97% 29.66 in 7.0 mi WNW 16.1 mph 20.7 mph N/A Snow Light Snow
6:14 AM 28.6 °F 16.8 °F 26.2 °F 91% 29.66 in 10.0 mi WNW 16.1 mph - N/A   Scattered Clouds
6:34 AM 28.9 °F 16.1 °F 25.7 °F 88% 29.68 in 10.0 mi West 19.6 mph 24.2 mph N/A   Mostly Cloudy
6:54 AM 28.4 °F 16.2 °F 25.3 °F 88% 29.66 in 10.0 mi WNW 17.3 mph 23.0 mph N/A   Overcast
7:14 AM 28.8 °F 16.6 °F 25.2 °F 86% 29.66 in 10.0 mi WNW 17.3 mph 21.9 mph N/A   Overcast
7:35 AM 28.4 °F 17.0 °F 24.8 °F 86% 29.68 in 10.0 mi WNW 15.0 mph - N/A   Overcast
7:54 AM 28.4 °F 19.7 °F 25.2 °F 88% 29.68 in 10.0 mi WNW 9.2 mph - N/A   Overcast
8:14 AM 28.4 °F 19.1 °F 25.3 °F 88% 29.69 in 10.0 mi WNW 10.4 mph - N/A   Overcast
8:35 AM 27.9 °F 17.3 °F 24.4 °F 87% 29.69 in 10.0 mi West 12.7 mph - N/A   Scattered Clouds
8:54 AM 27.0 °F 18.7 °F 23.5 °F 87% 29.70 in 10.0 mi West 8.1 mph - N/A   Clear
9:14 AM 29.5 °F 17.2 °F 25.0 °F 83% 29.71 in 10.0 mi WNW 18.4 mph 23.0 mph N/A   Clear
9:35 AM 31.5 °F 18.8 °F 25.5 °F 79% 29.70 in 7.0 mi West 21.9 mph - N/A   Clear
9:54 AM 32.0 °F 20.1 °F 25.3 °F 76% 29.71 in 10.0 mi West 19.6 mph 27.6 mph N/A   Clear
10:14 AM 32.0 °F 20.1 °F 25.5 °F 77% 29.71 in 10.0 mi West 19.6 mph 26.5 mph N/A   Clear
10:34 AM 32.9 °F 21.3 °F 25.7 °F 75% 29.71 in 10.0 mi West 19.6 mph - N/A   Clear
10:54 AM 34.0 °F 22.1 °F 25.7 °F 72% 29.73 in 10.0 mi WNW 21.9 mph 26.5 mph N/A   Clear
11:14 AM 34.5 °F 22.3 °F 25.7 °F 70% 29.73 in 7.0 mi West 24.2 mph 28.8 mph N/A   Clear
11:35 AM 34.9 °F 24.2 °F 25.9 °F 70% 29.73 in 10.0 mi WNW 18.4 mph 23.0 mph N/A   Clear
11:54 AM 35.8 °F 24.2 °F 25.9 °F 67% 29.74 in 10.0 mi WNW 23.0 mph 31.1 mph N/A   Clear
12:14 PM 36.0 °F 25.6 °F 26.6 °F 69% 29.74 in 10.0 mi WNW 18.4 mph 25.3 mph N/A   Clear
12:35 PM 36.5 °F 26.7 °F 27.0 °F 68% 29.73 in 10.0 mi WNW 17.3 mph 26.5 mph N/A   Clear
12:54 PM 36.5 °F 26.7 °F 27.1 °F 69% 29.74 in 10.0 mi WNW 17.3 mph 25.3 mph N/A   Clear
1:14 PM 36.7 °F 26.3 °F 27.5 °F 69% 29.74 in 10.0 mi WNW 19.6 mph 25.3 mph N/A   Clear
1:35 PM 37.2 °F 26.7 °F 27.5 °F 68% 29.74 in 10.0 mi WNW 20.7 mph 31.1 mph N/A   Clear
1:54 PM 37.6 °F 26.3 °F 27.7 °F 67% 29.73 in 10.0 mi WNW 24.2 mph 33.4 mph N/A   Clear
2:14 PM 38.3 °F 27.6 °F 28.0 °F 67% 29.74 in 10.0 mi WNW 23.0 mph 27.6 mph N/A   Clear
2:35 PM 38.3 °F 28.4 °F 28.0 °F 67% 29.73 in 10.0 mi West 19.6 mph 28.8 mph N/A   Clear
2:54 PM 38.7 °F 29.1 °F 28.2 °F 66% 29.73 in 10.0 mi WNW 18.4 mph 24.2 mph N/A   Clear
3:15 PM 39.0 °F 29.3 °F 27.9 °F 64% 29.75 in 10.0 mi West 19.6 mph 23.0 mph N/A   Clear
3:35 PM 38.8 °F 29.7 °F 28.2 °F 66% 29.75 in 10.0 mi West 17.3 mph 24.2 mph N/A   Clear
3:54 PM 38.8 °F 30.4 °F 28.6 °F 67% 29.75 in 10.0 mi West 15.0 mph - N/A   Clear
4:15 PM 38.8 °F 30.0 °F 28.8 °F 67% 29.75 in 10.0 mi West 16.1 mph 20.7 mph N/A   Clear
4:34 PM 38.8 °F 30.4 °F 28.4 °F 66% 29.75 in 10.0 mi West 15.0 mph - N/A   Clear
4:54 PM 38.7 °F 30.9 °F 27.9 °F 65% 29.75 in 10.0 mi West 12.7 mph - N/A   Clear
5:15 PM 37.6 °F 31.0 °F 28.8 °F 70% 29.75 in 10.0 mi West 9.2 mph - N/A   Clear
5:34 PM 36.7 °F 28.4 °F 28.9 °F 74% 29.75 in 10.0 mi West 12.7 mph - N/A   Clear
5:55 PM 36.0 °F 28.0 °F 28.6 °F 75% 29.76 in 10.0 mi WSW 11.5 mph 18.4 mph N/A   Clear
6:14 PM 35.2 °F 28.8 °F 28.8 °F 77% 29.75 in 10.0 mi WSW 8.1 mph - N/A   Clear
6:35 PM 34.7 °F 26.9 °F 28.8 °F 79% 29.75 in 10.0 mi WSW 10.4 mph - N/A   Clear
6:54 PM 35.1 °F 27.9 °F 28.2 °F 76% 29.75 in 10.0 mi SW 9.2 mph - N/A   Clear
7:14 PM 35.2 °F 29.5 °F 28.0 °F 75% 29.75 in 10.0 mi SW 6.9 mph - N/A   Clear
7:35 PM 35.6 °F 31.7 °F 27.1 °F 71% 29.74 in 10.0 mi South 4.6 mph - N/A   Clear
7:55 PM 32.7 °F 27.3 °F 26.6 °F 78% 29.72 in 10.0 mi WSW 5.8 mph - N/A   Clear
8:14 PM 37.2 °F 34.7 °F 25.7 °F 63% 29.72 in 10.0 mi SSW 3.5 mph - N/A   Clear
8:35 PM 35.6 °F 30.7 °F 25.7 °F 67% 29.71 in 10.0 mi SSW 5.8 mph - N/A   Clear
8:54 PM 35.8 °F 27.8 °F 26.4 °F 69% 29.71 in 10.0 mi SW 11.5 mph 17.3 mph N/A   Clear
9:14 PM 35.8 °F 26.5 °F 26.2 °F 68% 29.70 in 10.0 mi SW 15.0 mph - N/A   Clear
9:35 PM 36.7 °F 26.3 °F 25.7 °F 64% 29.69 in 10.0 mi SW 19.6 mph 23.0 mph N/A   Clear
9:54 PM 36.1 °F 26.2 °F 25.2 °F 64% 29.69 in 10.0 mi SW 17.3 mph 23.0 mph N/A   Clear
10:15 PM 36.9 °F 27.8 °F 24.6 °F 61% 29.68 in 10.0 mi SSW 15.0 mph 20.7 mph N/A   Clear
10:35 PM 36.5 °F 27.0 °F 24.6 °F 62% 29.67 in 10.0 mi SSW 16.1 mph 23.0 mph N/A   Clear
10:54 PM 36.9 °F 27.5 °F 24.6 °F 61% 29.67 in 10.0 mi SW 16.1 mph 24.2 mph N/A   Clear
11:15 PM 36.1 °F 26.9 °F 25.2 °F 64% 29.66 in 10.0 mi SSW 15.0 mph 24.2 mph N/A   Clear
11:34 PM 36.9 °F 27.8 °F 24.8 °F 62% 29.66 in 10.0 mi SSW 15.0 mph 20.7 mph N/A   Clear
11:54 PM 36.7 °F 27.6 °F 24.8 °F 62% 29.65 in 10.0 mi SSW 15.0 mph 21.9 mph N/A   Clear